sensor_id;sensor_type;location;lat;lon;timestamp;pressure;altitude;pressure_sealevel;temperature;humidity
70302;BME280;57706;56.326;43.882;2023-09-08T00:01:59;100372.72;;;9.84;80.87
70302;BME280;57706;56.326;43.882;2023-09-08T00:04:24;100376.47;;;9.82;80.84
70302;BME280;57706;56.326;43.882;2023-09-08T00:06:50;100383.22;;;9.84;81.17
70302;BME280;57706;56.326;43.882;2023-09-08T00:09:16;100371.22;;;9.82;81.19
70302;BME280;57706;56.326;43.882;2023-09-08T00:11:42;100371.34;;;9.72;81.95
70302;BME280;57706;56.326;43.882;2023-09-08T00:14:08;100373.34;;;9.78;81.96
70302;BME280;57706;56.326;43.882;2023-09-08T00:16:33;100371.06;;;9.83;81.90
70302;BME280;57706;56.326;43.882;2023-09-08T00:18:59;100375.34;;;9.84;82.32
70302;BME280;57706;56.326;43.882;2023-09-08T00:21:26;100374.50;;;9.84;82.07
70302;BME280;57706;56.326;43.882;2023-09-08T00:23:53;100381.88;;;9.80;82.75
70302;BME280;57706;56.326;43.882;2023-09-08T00:26:19;100373.69;;;9.83;82.83
70302;BME280;57706;56.326;43.882;2023-09-08T00:28:47;100375.34;;;9.84;82.91
70302;BME280;57706;56.326;43.882;2023-09-08T00:31:13;100376.66;;;9.88;82.91
70302;BME280;57706;56.326;43.882;2023-09-08T00:33:39;100381.59;;;9.91;83.34
70302;BME280;57706;56.326;43.882;2023-09-08T00:36:06;100377.69;;;9.96;83.27
70302;BME280;57706;56.326;43.882;2023-09-08T00:38:32;100369.16;;;9.94;83.10
70302;BME280;57706;56.326;43.882;2023-09-08T00:40:58;100373.06;;;9.89;83.69
70302;BME280;57706;56.326;43.882;2023-09-08T00:43:27;100385.19;;;9.90;84.23
70302;BME280;57706;56.326;43.882;2023-09-08T00:45:54;100377.69;;;9.96;83.96
70302;BME280;57706;56.326;43.882;2023-09-08T00:48:21;100378.00;;;9.93;84.14
70302;BME280;57706;56.326;43.882;2023-09-08T00:50:47;100377.31;;;9.90;83.98
70302;BME280;57706;56.326;43.882;2023-09-08T00:53:14;100381.25;;;9.86;84.28
70302;BME280;57706;56.326;43.882;2023-09-08T00:55:40;100373.53;;;9.85;84.44
70302;BME280;57706;56.326;43.882;2023-09-08T00:58:07;100376.63;;;9.80;84.32
70302;BME280;57706;56.326;43.882;2023-09-08T01:00:33;100374.66;;;9.82;84.55
70302;BME280;57706;56.326;43.882;2023-09-08T01:03:00;100378.63;;;9.86;84.56
70302;BME280;57706;56.326;43.882;2023-09-08T01:05:26;100370.59;;;9.88;84.20
70302;BME280;57706;56.326;43.882;2023-09-08T01:07:53;100368.13;;;9.86;84.15
70302;BME280;57706;56.326;43.882;2023-09-08T01:10:19;100363.69;;;9.87;84.33
70302;BME280;57706;56.326;43.882;2023-09-08T01:12:45;100364.84;;;9.84;84.44
70302;BME280;57706;56.326;43.882;2023-09-08T01:15:12;100364.84;;;9.84;84.45
70302;BME280;57706;56.326;43.882;2023-09-08T01:17:39;100355.63;;;9.80;84.52
70302;BME280;57706;56.326;43.882;2023-09-08T01:20:21;100357.94;;;9.83;84.42
70302;BME280;57706;56.326;43.882;2023-09-08T01:25:23;100359.09;;;9.81;84.21
70302;BME280;57706;56.326;43.882;2023-09-08T01:27:54;100354.66;;;9.81;84.02
70302;BME280;57706;56.326;43.882;2023-09-08T01:30:25;100356.28;;;9.82;83.73
70302;BME280;57706;56.326;43.882;2023-09-08T01:32:54;100348.59;;;9.81;83.92
70302;BME280;57706;56.326;43.882;2023-09-08T01:35:20;100344.97;;;9.82;83.88
70302;BME280;57706;56.326;43.882;2023-09-08T01:37:48;100344.78;;;9.75;84.43
70302;BME280;57706;56.326;43.882;2023-09-08T01:40:16;100345.25;;;9.70;84.56
70302;BME280;57706;56.326;43.882;2023-09-08T01:42:45;100340.47;;;9.66;84.68
70302;BME280;57706;56.326;43.882;2023-09-08T01:45:11;100342.44;;;9.63;84.22
70302;BME280;57706;56.326;43.882;2023-09-08T01:47:37;100339.44;;;9.58;84.26
70302;BME280;57706;56.326;43.882;2023-09-08T01:50:04;100335.66;;;9.53;84.09
70302;BME280;57706;56.326;43.882;2023-09-08T01:52:30;100338.09;;;9.46;84.03
70302;BME280;57706;56.326;43.882;2023-09-08T01:54:56;100336.41;;;9.36;83.96
70302;BME280;57706;56.326;43.882;2023-09-08T01:57:22;100336.50;;;9.27;83.95
70302;BME280;57706;56.326;43.882;2023-09-08T01:59:47;100331.06;;;9.20;84.41
70302;BME280;57706;56.326;43.882;2023-09-08T02:02:14;100329.91;;;9.14;84.50
70302;BME280;57706;56.326;43.882;2023-09-08T02:04:40;100337.53;;;9.07;84.68
70302;BME280;57706;56.326;43.882;2023-09-08T02:07:06;100342.78;;;9.07;84.88
70302;BME280;57706;56.326;43.882;2023-09-08T02:09:36;100332.56;;;8.96;85.62
70302;BME280;57706;56.326;43.882;2023-09-08T02:12:03;100331.53;;;8.89;85.90
70302;BME280;57706;56.326;43.882;2023-09-08T02:14:29;100335.97;;;8.88;85.71
70302;BME280;57706;56.326;43.882;2023-09-08T02:16:56;100323.66;;;8.89;85.65
70302;BME280;57706;56.326;43.882;2023-09-08T02:19:24;100322.63;;;8.81;86.15
70302;BME280;57706;56.326;43.882;2023-09-08T02:21:50;100323.44;;;8.82;86.29
70302;BME280;57706;56.326;43.882;2023-09-08T02:24:16;100329.22;;;8.86;86.12
70302;BME280;57706;56.326;43.882;2023-09-08T02:26:42;100323.34;;;8.92;85.94
70302;BME280;57706;56.326;43.882;2023-09-08T02:29:09;100319.78;;;8.93;86.11
70302;BME280;57706;56.326;43.882;2023-09-08T02:31:35;100320.72;;;8.92;86.23
70302;BME280;57706;56.326;43.882;2023-09-08T02:34:03;100315.53;;;9.00;86.25
70302;BME280;57706;56.326;43.882;2023-09-08T02:36:31;100314.63;;;9.09;86.02
70302;BME280;57706;56.326;43.882;2023-09-08T02:38:57;100318.63;;;9.22;85.71
70302;BME280;57706;56.326;43.882;2023-09-08T02:41:24;100311.63;;;9.31;85.32
70302;BME280;57706;56.326;43.882;2023-09-08T02:43:50;100310.69;;;9.40;85.09
70302;BME280;57706;56.326;43.882;2023-09-08T02:46:16;100312.47;;;9.40;84.39
70302;BME280;57706;56.326;43.882;2023-09-08T02:48:42;100302.03;;;9.48;84.46
70302;BME280;57706;56.326;43.882;2023-09-08T02:51:08;100305.38;;;9.67;84.48
70302;BME280;57706;56.326;43.882;2023-09-08T02:53:34;100303.50;;;9.85;83.83
70302;BME280;57706;56.326;43.882;2023-09-08T02:56:02;100301.38;;;9.97;82.62
70302;BME280;57706;56.326;43.882;2023-09-08T02:58:31;100295.00;;;10.16;81.76
70302;BME280;57706;56.326;43.882;2023-09-08T03:01:16;100290.09;;;10.30;80.21
70302;BME280;57706;56.326;43.882;2023-09-08T03:03:46;100285.84;;;10.29;79.96
70302;BME280;57706;56.326;43.882;2023-09-08T03:06:14;100287.63;;;10.28;79.40
70302;BME280;57706;56.326;43.882;2023-09-08T03:08:41;100283.72;;;10.32;79.29
70302;BME280;57706;56.326;43.882;2023-09-08T03:11:07;100279.59;;;10.30;79.42
70302;BME280;57706;56.326;43.882;2023-09-08T03:13:35;100289.09;;;10.23;79.69
70302;BME280;57706;56.326;43.882;2023-09-08T03:16:03;100280.25;;;10.24;79.83
70302;BME280;57706;56.326;43.882;2023-09-08T03:18:29;100285.50;;;10.24;79.81
70302;BME280;57706;56.326;43.882;2023-09-08T03:20:55;100291.22;;;10.11;79.88
70302;BME280;57706;56.326;43.882;2023-09-08T03:23:21;100296.66;;;10.09;80.35
70302;BME280;57706;56.326;43.882;2023-09-08T03:25:48;100291.06;;;10.04;80.74
70302;BME280;57706;56.326;43.882;2023-09-08T03:28:15;100295.66;;;10.10;80.18
70302;BME280;57706;56.326;43.882;2023-09-08T03:30:40;100290.06;;;10.05;80.49
70302;BME280;57706;56.326;43.882;2023-09-08T03:33:06;100286.31;;;10.08;80.23
70302;BME280;57706;56.326;43.882;2023-09-08T03:35:32;100290.72;;;10.07;80.12
70302;BME280;57706;56.326;43.882;2023-09-08T03:37:58;100285.81;;;10.04;80.70
70302;BME280;57706;56.326;43.882;2023-09-08T03:40:24;100289.94;;;10.23;80.63
70302;BME280;57706;56.326;43.882;2023-09-08T03:42:50;100285.22;;;10.43;79.60
70302;BME280;57706;56.326;43.882;2023-09-08T03:45:16;100279.63;;;10.46;79.13
70302;BME280;57706;56.326;43.882;2023-09-08T03:47:42;100281.91;;;10.58;78.65
70302;BME280;57706;56.326;43.882;2023-09-08T03:50:08;100279.63;;;10.71;78.50
70302;BME280;57706;56.326;43.882;2023-09-08T03:52:35;100283.69;;;10.91;77.45
70302;BME280;57706;56.326;43.882;2023-09-08T03:55:01;100278.59;;;10.89;76.46
70302;BME280;57706;56.326;43.882;2023-09-08T03:57:27;100273.00;;;11.09;76.37
70302;BME280;57706;56.326;43.882;2023-09-08T03:59:53;100274.59;;;11.18;75.19
70302;BME280;57706;56.326;43.882;2023-09-08T04:02:18;100274.59;;;11.18;75.17
70302;BME280;57706;56.326;43.882;2023-09-08T04:04:44;100276.56;;;11.16;75.55
70302;BME280;57706;56.326;43.882;2023-09-08T04:07:10;100266.53;;;11.11;75.73
70302;BME280;57706;56.326;43.882;2023-09-08T04:09:36;100268.66;;;11.16;75.79
70302;BME280;57706;56.326;43.882;2023-09-08T04:12:02;100271.03;;;10.94;76.13
70302;BME280;57706;56.326;43.882;2023-09-08T04:14:29;100268.09;;;10.89;76.01
70302;BME280;57706;56.326;43.882;2023-09-08T04:16:56;100268.09;;;10.89;76.02
70302;BME280;57706;56.326;43.882;2023-09-08T04:19:22;100266.44;;;10.88;76.08
70302;BME280;57706;56.326;43.882;2023-09-08T04:21:47;100260.88;;;10.74;76.25
70302;BME280;57706;56.326;43.882;2023-09-08T04:24:13;100271.72;;;10.88;76.80
70302;BME280;57706;56.326;43.882;2023-09-08T04:26:39;100262.19;;;10.79;76.18
70302;BME280;57706;56.326;43.882;2023-09-08T04:29:05;100266.09;;;10.91;76.30
70302;BME280;57706;56.326;43.882;2023-09-08T04:31:31;100266.78;;;10.93;75.79
70302;BME280;57706;56.326;43.882;2023-09-08T04:33:56;100261.44;;;11.18;76.00
70302;BME280;57706;56.326;43.882;2023-09-08T04:36:22;100274.56;;;11.26;75.43
70302;BME280;57706;56.326;43.882;2023-09-08T04:38:48;100267.38;;;11.12;75.22
70302;BME280;57706;56.326;43.882;2023-09-08T04:41:14;100262.78;;;11.06;75.70
70302;BME280;57706;56.326;43.882;2023-09-08T04:43:40;100261.19;;;10.88;76.43
70302;BME280;57706;56.326;43.882;2023-09-08T04:46:06;100261.00;;;10.98;76.21
70302;BME280;57706;56.326;43.882;2023-09-08T04:48:32;100257.53;;;11.06;76.36
70302;BME280;57706;56.326;43.882;2023-09-08T04:50:58;100253.19;;;11.29;76.11
70302;BME280;57706;56.326;43.882;2023-09-08T04:53:24;100256.31;;;11.25;75.06
70302;BME280;57706;56.326;43.882;2023-09-08T04:55:49;100253.84;;;11.23;75.21
70302;BME280;57706;56.326;43.882;2023-09-08T04:58:16;100251.25;;;11.15;75.21
70302;BME280;57706;56.326;43.882;2023-09-08T05:00:42;100244.88;;;11.09;75.27
70302;BME280;57706;56.326;43.882;2023-09-08T05:03:08;100246.63;;;11.25;75.10
70302;BME280;57706;56.326;43.882;2023-09-08T05:05:34;100248.19;;;11.43;74.50
70302;BME280;57706;56.326;43.882;2023-09-08T05:08:00;100241.81;;;11.69;73.96
70302;BME280;57706;56.326;43.882;2023-09-08T05:10:26;100238.88;;;11.95;72.93
70302;BME280;57706;56.326;43.882;2023-09-08T05:12:52;100234.34;;;11.81;71.94
70302;BME280;57706;56.326;43.882;2023-09-08T05:15:19;100224.41;;;12.15;71.29
70302;BME280;57706;56.326;43.882;2023-09-08T05:17:50;100232.31;;;12.53;70.27
70302;BME280;57706;56.326;43.882;2023-09-08T05:20:18;100234.00;;;13.14;68.97
70302;BME280;57706;56.326;43.882;2023-09-08T05:22:44;100232.66;;;13.70;66.01
70302;BME280;57706;56.326;43.882;2023-09-08T05:25:11;100222.69;;;14.38;63.12
70302;BME280;57706;56.326;43.882;2023-09-08T05:27:38;100219.47;;;15.06;61.42
70302;BME280;57706;56.326;43.882;2023-09-08T05:30:04;100223.25;;;14.90;60.80
70302;BME280;57706;56.326;43.882;2023-09-08T05:32:32;100223.81;;;15.21;59.87
70302;BME280;57706;56.326;43.882;2023-09-08T05:34:58;100222.50;;;15.45;60.10
70302;BME280;57706;56.326;43.882;2023-09-08T05:37:24;100223.72;;;15.49;59.97
70302;BME280;57706;56.326;43.882;2023-09-08T05:39:50;100218.63;;;14.99;59.75
70302;BME280;57706;56.326;43.882;2023-09-08T05:42:15;100214.91;;;14.86;59.81
70302;BME280;57706;56.326;43.882;2023-09-08T05:44:41;100213.00;;;14.52;61.59
70302;BME280;57706;56.326;43.882;2023-09-08T05:47:07;100211.50;;;14.14;63.04
70302;BME280;57706;56.326;43.882;2023-09-08T05:49:33;100218.13;;;13.44;64.92
70302;BME280;57706;56.326;43.882;2023-09-08T05:51:59;100211.47;;;13.48;65.84
70302;BME280;57706;56.326;43.882;2023-09-08T05:54:27;100199.84;;;13.28;65.66
70302;BME280;57706;56.326;43.882;2023-09-08T05:56:54;100206.28;;;13.40;65.35
70302;BME280;57706;56.326;43.882;2023-09-08T05:59:20;100205.63;;;13.16;66.00
70302;BME280;57706;56.326;43.882;2023-09-08T06:01:46;100205.25;;;12.89;67.68
70302;BME280;57706;56.326;43.882;2023-09-08T06:04:12;100201.38;;;12.70;68.72
70302;BME280;57706;56.326;43.882;2023-09-08T06:06:38;100193.06;;;12.58;69.28
70302;BME280;57706;56.326;43.882;2023-09-08T06:09:05;100192.25;;;12.73;70.19
70302;BME280;57706;56.326;43.882;2023-09-08T06:11:31;100198.53;;;12.72;68.13
70302;BME280;57706;56.326;43.882;2023-09-08T06:13:57;100193.91;;;12.89;68.67
70302;BME280;57706;56.326;43.882;2023-09-08T06:16:27;100190.63;;;12.87;68.08
70302;BME280;57706;56.326;43.882;2023-09-08T06:18:52;100185.97;;;12.74;69.33
70302;BME280;57706;56.326;43.882;2023-09-08T06:21:19;100187.06;;;12.64;69.53
70302;BME280;57706;56.326;43.882;2023-09-08T06:23:46;100190.53;;;12.50;70.38
70302;BME280;57706;56.326;43.882;2023-09-08T06:26:13;100188.13;;;12.40;71.18
70302;BME280;57706;56.326;43.882;2023-09-08T06:28:39;100187.91;;;12.11;72.05
70302;BME280;57706;56.326;43.882;2023-09-08T06:31:08;100183.31;;;12.05;72.48
70302;BME280;57706;56.326;43.882;2023-09-08T06:33:36;100188.28;;;12.00;72.67
70302;BME280;57706;56.326;43.882;2023-09-08T06:36:01;100199.91;;;11.82;74.01
70302;BME280;57706;56.326;43.882;2023-09-08T06:38:28;100192.53;;;11.54;73.56
70302;BME280;57706;56.326;43.882;2023-09-08T06:40:58;100187.91;;;11.25;72.05
70302;BME280;57706;56.326;43.882;2023-09-08T06:43:24;100191.97;;;11.04;71.14
70302;BME280;57706;56.326;43.882;2023-09-08T06:46:03;100196.09;;;10.90;71.05
70302;BME280;57706;56.326;43.882;2023-09-08T06:48:31;100191.53;;;10.84;71.04
70302;BME280;57706;56.326;43.882;2023-09-08T06:50:57;100191.88;;;10.81;70.90
70302;BME280;57706;56.326;43.882;2023-09-08T06:53:23;100188.09;;;10.83;71.89
70302;BME280;57706;56.326;43.882;2023-09-08T06:55:50;100187.06;;;10.93;72.67
70302;BME280;57706;56.326;43.882;2023-09-08T06:58:16;100185.31;;;11.17;72.29
70302;BME280;57706;56.326;43.882;2023-09-08T07:00:42;100177.72;;;11.30;71.85
70302;BME280;57706;56.326;43.882;2023-09-08T07:03:08;100175.69;;;11.64;71.41
70302;BME280;57706;56.326;43.882;2023-09-08T07:05:34;100178.06;;;11.82;71.04
70302;BME280;57706;56.326;43.882;2023-09-08T07:08:01;100179.78;;;12.36;70.10
70302;BME280;57706;56.326;43.882;2023-09-08T07:10:28;100182.72;;;12.87;68.24
70302;BME280;57706;56.326;43.882;2023-09-08T07:12:53;100185.88;;;13.12;67.85
70302;BME280;57706;56.326;43.882;2023-09-08T07:15:19;100180.84;;;13.69;66.38
70302;BME280;57706;56.326;43.882;2023-09-08T07:17:46;100176.22;;;14.22;61.80
70302;BME280;57706;56.326;43.882;2023-09-08T07:20:12;100173.94;;;15.31;60.05
70302;BME280;57706;56.326;43.882;2023-09-08T07:22:38;100177.31;;;16.55;55.23
70302;BME280;57706;56.326;43.882;2023-09-08T07:25:05;100177.66;;;17.70;53.86
70302;BME280;57706;56.326;43.882;2023-09-08T07:27:31;100163.25;;;18.35;51.02
70302;BME280;57706;56.326;43.882;2023-09-08T07:29:57;100173.03;;;19.16;49.62
70302;BME280;57706;56.326;43.882;2023-09-08T07:32:23;100166.28;;;20.58;46.53
70302;BME280;57706;56.326;43.882;2023-09-08T07:34:50;100170.72;;;21.98;42.60
70302;BME280;57706;56.326;43.882;2023-09-08T07:37:22;100165.28;;;22.49;41.77
70302;BME280;57706;56.326;43.882;2023-09-08T07:39:51;100167.78;;;21.65;42.26
70302;BME280;57706;56.326;43.882;2023-09-08T07:42:18;100164.00;;;20.02;45.45
70302;BME280;57706;56.326;43.882;2023-09-08T07:44:45;100169.97;;;19.86;45.49
70302;BME280;57706;56.326;43.882;2023-09-08T07:47:11;100170.31;;;19.35;46.34
70302;BME280;57706;56.326;43.882;2023-09-08T07:49:36;100170.81;;;18.94;46.73
70302;BME280;57706;56.326;43.882;2023-09-08T07:52:02;100164.53;;;18.89;47.96
70302;BME280;57706;56.326;43.882;2023-09-08T07:54:30;100168.22;;;19.37;46.75
70302;BME280;57706;56.326;43.882;2023-09-08T07:56:56;100158.88;;;19.89;44.14
70302;BME280;57706;56.326;43.882;2023-09-08T07:59:22;100167.84;;;20.06;44.65
70302;BME280;57706;56.326;43.882;2023-09-08T08:01:47;100167.97;;;21.00;42.62
70302;BME280;57706;56.326;43.882;2023-09-08T08:04:13;100165.53;;;20.99;42.52
70302;BME280;57706;56.326;43.882;2023-09-08T08:06:39;100168.16;;;20.46;42.58
70302;BME280;57706;56.326;43.882;2023-09-08T08:09:05;100172.31;;;20.66;42.05
70302;BME280;57706;56.326;43.882;2023-09-08T08:11:30;100167.22;;;19.92;43.39
70302;BME280;57706;56.326;43.882;2023-09-08T08:13:56;100166.72;;;18.92;45.50
70302;BME280;57706;56.326;43.882;2023-09-08T08:16:23;100164.69;;;18.12;46.37
70302;BME280;57706;56.326;43.882;2023-09-08T08:18:49;100158.69;;;17.92;47.17
70302;BME280;57706;56.326;43.882;2023-09-08T08:21:15;100165.84;;;17.66;48.94
70302;BME280;57706;56.326;43.882;2023-09-08T08:23:41;100168.75;;;17.57;49.21
70302;BME280;57706;56.326;43.882;2023-09-08T08:26:06;100161.44;;;17.53;49.63
70302;BME280;57706;56.326;43.882;2023-09-08T08:28:32;100169.88;;;17.75;49.70
70302;BME280;57706;56.326;43.882;2023-09-08T08:30:58;100164.56;;;18.26;48.46
70302;BME280;57706;56.326;43.882;2023-09-08T08:33:24;100163.56;;;18.83;46.77
70302;BME280;57706;56.326;43.882;2023-09-08T08:35:52;100161.34;;;19.60;45.53
70302;BME280;57706;56.326;43.882;2023-09-08T08:38:19;100156.47;;;21.00;43.64
70302;BME280;57706;56.326;43.882;2023-09-08T08:40:45;100167.44;;;25.29;35.03
70302;BME280;57706;56.326;43.882;2023-09-08T08:43:12;100162.03;;;27.39;31.26
70302;BME280;57706;56.326;43.882;2023-09-08T08:45:38;100172.25;;;25.33;33.84
70302;BME280;57706;56.326;43.882;2023-09-08T08:48:05;100165.53;;;23.70;35.95
70302;BME280;57706;56.326;43.882;2023-09-08T08:50:34;100169.09;;;22.14;38.33
70302;BME280;57706;56.326;43.882;2023-09-08T08:53:00;100169.44;;;21.08;40.01
70302;BME280;57706;56.326;43.882;2023-09-08T08:55:29;100168.72;;;20.72;39.85
70302;BME280;57706;56.326;43.882;2023-09-08T08:58:01;100162.78;;;20.70;41.05
70302;BME280;57706;56.326;43.882;2023-09-08T09:00:28;100170.44;;;20.78;40.58
70302;BME280;57706;56.326;43.882;2023-09-08T09:02:55;100163.00;;;20.80;39.71
70302;BME280;57706;56.326;43.882;2023-09-08T09:05:22;100169.78;;;21.12;39.79
70302;BME280;57706;56.326;43.882;2023-09-08T09:07:50;100170.25;;;21.84;39.10
70302;BME280;57706;56.326;43.882;2023-09-08T09:10:17;100175.41;;;22.87;37.38
70302;BME280;57706;56.326;43.882;2023-09-08T09:12:43;100178.63;;;23.99;36.44
70302;BME280;57706;56.326;43.882;2023-09-08T09:15:09;100169.56;;;25.27;34.33
70302;BME280;57706;56.326;43.882;2023-09-08T09:17:36;100176.88;;;27.37;31.01
70302;BME280;57706;56.326;43.882;2023-09-08T09:20:15;100176.94;;;27.31;29.33
70302;BME280;57706;56.326;43.882;2023-09-08T09:22:47;100174.41;;;27.80;29.09
70302;BME280;57706;56.326;43.882;2023-09-08T09:25:22;100183.06;;;28.07;29.22
70302;BME280;57706;56.326;43.882;2023-09-08T09:27:53;100172.56;;;26.96;29.96
70302;BME280;57706;56.326;43.882;2023-09-08T09:30:19;100182.16;;;27.57;30.11
70302;BME280;57706;56.326;43.882;2023-09-08T09:32:45;100179.25;;;26.27;31.47
70302;BME280;57706;56.326;43.882;2023-09-08T09:35:11;100180.88;;;25.35;33.17
70302;BME280;57706;56.326;43.882;2023-09-08T09:37:36;100179.53;;;25.32;33.23
70302;BME280;57706;56.326;43.882;2023-09-08T09:40:03;100184.38;;;26.13;31.05
70302;BME280;57706;56.326;43.882;2023-09-08T09:42:33;100177.75;;;27.27;29.74
70302;BME280;57706;56.326;43.882;2023-09-08T09:45:00;100182.91;;;29.53;27.46
70302;BME280;57706;56.326;43.882;2023-09-08T09:47:30;100178.13;;;30.11;26.83
70302;BME280;57706;56.326;43.882;2023-09-08T09:49:56;100177.13;;;29.74;27.06
70302;BME280;57706;56.326;43.882;2023-09-08T09:52:24;100194.91;;;30.55;25.32
70302;BME280;57706;56.326;43.882;2023-09-08T09:54:54;100177.13;;;32.72;22.74
70302;BME280;57706;56.326;43.882;2023-09-08T09:57:22;100159.25;;;35.93;19.51
70302;BME280;57706;56.326;43.882;2023-09-08T09:59:49;100168.88;;;35.20;18.14
70302;BME280;57706;56.326;43.882;2023-09-08T10:02:18;100165.72;;;34.15;20.44
70302;BME280;57706;56.326;43.882;2023-09-08T10:04:48;100160.28;;;37.65;17.34
70302;BME280;57706;56.326;43.882;2023-09-08T10:07:18;100155.44;;;40.42;14.86
70302;BME280;57706;56.326;43.882;2023-09-08T10:09:44;100149.84;;;41.03;14.37
70302;BME280;57706;56.326;43.882;2023-09-08T10:12:13;100150.63;;;42.54;13.32
70302;BME280;57706;56.326;43.882;2023-09-08T10:14:42;100141.72;;;40.45;14.16
70302;BME280;57706;56.326;43.882;2023-09-08T10:17:22;100143.66;;;38.06;15.23
70302;BME280;57706;56.326;43.882;2023-09-08T10:19:51;100148.34;;;41.09;14.41
70302;BME280;57706;56.326;43.882;2023-09-08T10:22:20;100148.69;;;42.65;12.99
70302;BME280;57706;56.326;43.882;2023-09-08T10:24:50;100150.81;;;43.63;11.35
70302;BME280;57706;56.326;43.882;2023-09-08T10:27:17;100143.19;;;42.79;11.25
70302;BME280;57706;56.326;43.882;2023-09-08T10:29:46;100139.41;;;37.44;14.79
70302;BME280;57706;56.326;43.882;2023-09-08T10:32:14;100139.22;;;38.18;15.68
70302;BME280;57706;56.326;43.882;2023-09-08T10:34:42;100144.28;;;38.16;15.77
70302;BME280;57706;56.326;43.882;2023-09-08T10:37:23;100149.19;;;33.72;18.98
70302;BME280;57706;56.326;43.882;2023-09-08T10:42:44;100161.50;;;25.12;30.33
70302;BME280;57706;56.326;43.882;2023-09-08T10:45:18;100162.97;;;22.75;34.10
70302;BME280;57706;56.326;43.882;2023-09-08T10:50:20;100182.75;;;19.41;40.97
70302;BME280;57706;56.326;43.882;2023-09-08T10:53:16;100173.88;;;18.35;44.32
70302;BME280;57706;56.326;43.882;2023-09-08T10:55:44;100177.03;;;18.00;45.76
70302;BME280;57706;56.326;43.882;2023-09-08T11:00:59;100176.94;;;18.13;46.60
70302;BME280;57706;56.326;43.882;2023-09-08T11:06:09;100194.28;;;19.35;44.77
70302;BME280;57706;56.326;43.882;2023-09-08T11:08:42;100188.22;;;20.84;41.86
70302;BME280;57706;56.326;43.882;2023-09-08T11:11:13;100181.91;;;22.91;38.09
70302;BME280;57706;56.326;43.882;2023-09-08T11:13:40;100182.25;;;24.15;36.58
70302;BME280;57706;56.326;43.882;2023-09-08T11:16:06;100177.25;;;27.65;30.42
70302;BME280;57706;56.326;43.882;2023-09-08T11:18:33;100183.84;;;30.24;26.39
70302;BME280;57706;56.326;43.882;2023-09-08T11:21:01;100183.38;;;33.61;22.87
70302;BME280;57706;56.326;43.882;2023-09-08T11:23:30;100176.47;;;37.70;18.57
70302;BME280;57706;56.326;43.882;2023-09-08T11:25:56;100185.09;;;39.32;16.42
70302;BME280;57706;56.326;43.882;2023-09-08T11:28:23;100174.97;;;41.32;14.50
70302;BME280;57706;56.326;43.882;2023-09-08T11:30:50;100169.22;;;40.76;13.33
70302;BME280;57706;56.326;43.882;2023-09-08T11:33:17;100179.50;;;42.78;12.86
70302;BME280;57706;56.326;43.882;2023-09-08T11:35:47;100173.31;;;44.26;11.62
70302;BME280;57706;56.326;43.882;2023-09-08T11:38:13;100173.69;;;45.67;11.09
70302;BME280;57706;56.326;43.882;2023-09-08T11:40:39;100171.72;;;45.64;10.89
70302;BME280;57706;56.326;43.882;2023-09-08T11:43:05;100177.69;;;42.22;12.22
70302;BME280;57706;56.326;43.882;2023-09-08T11:45:34;100171.59;;;36.12;16.20
70302;BME280;57706;56.326;43.882;2023-09-08T11:48:01;100181.94;;;32.26;20.33
70302;BME280;57706;56.326;43.882;2023-09-08T11:50:27;100191.38;;;33.57;19.88
70302;BME280;57706;56.326;43.882;2023-09-08T11:52:53;100184.72;;;38.38;14.63
70302;BME280;57706;56.326;43.882;2023-09-08T11:55:21;100179.47;;;39.24;14.59
70302;BME280;57706;56.326;43.882;2023-09-08T11:57:49;100181.06;;;36.15;17.91
70302;BME280;57706;56.326;43.882;2023-09-08T12:00:17;100187.88;;;36.46;16.89
70302;BME280;57706;56.326;43.882;2023-09-08T12:02:45;100193.91;;;32.83;20.98
70302;BME280;57706;56.326;43.882;2023-09-08T12:05:21;100188.41;;;33.89;20.40
70302;BME280;57706;56.326;43.882;2023-09-08T12:07:50;100201.38;;;31.33;22.91
70302;BME280;57706;56.326;43.882;2023-09-08T12:10:16;100202.72;;;28.12;27.08
70302;BME280;57706;56.326;43.882;2023-09-08T12:12:47;100204.03;;;26.34;29.57
70302;BME280;57706;56.326;43.882;2023-09-08T12:15:40;100207.31;;;28.90;26.14
70302;BME280;57706;56.326;43.882;2023-09-08T12:18:08;100208.22;;;31.30;23.54
70302;BME280;57706;56.326;43.882;2023-09-08T12:20:35;100206.00;;;28.88;26.31
70302;BME280;57706;56.326;43.882;2023-09-08T12:23:21;100219.69;;;25.91;29.89
70302;BME280;57706;56.326;43.882;2023-09-08T12:25:49;100219.59;;;23.84;33.56
70302;BME280;57706;56.326;43.882;2023-09-08T12:28:18;100226.16;;;22.37;36.20
70302;BME280;57706;56.326;43.882;2023-09-08T12:30:44;100227.38;;;21.49;37.45
70302;BME280;57706;56.326;43.882;2023-09-08T12:33:10;100231.50;;;20.62;38.81
70302;BME280;57706;56.326;43.882;2023-09-08T12:35:36;100231.88;;;19.88;40.88
70302;BME280;57706;56.326;43.882;2023-09-08T12:38:04;100229.97;;;22.24;37.57
70302;BME280;57706;56.326;43.882;2023-09-08T12:40:35;100222.75;;;29.28;26.60
70302;BME280;57706;56.326;43.882;2023-09-08T12:43:01;100225.97;;;33.21;21.29
70302;BME280;57706;56.326;43.882;2023-09-08T12:45:28;100231.38;;;35.34;18.85
70302;BME280;57706;56.326;43.882;2023-09-08T12:47:54;100233.25;;;36.22;18.41
70302;BME280;57706;56.326;43.882;2023-09-08T12:50:21;100237.41;;;36.82;17.82
70302;BME280;57706;56.326;43.882;2023-09-08T12:52:46;100241.97;;;37.76;16.63
70302;BME280;57706;56.326;43.882;2023-09-08T12:55:12;100245.53;;;37.47;16.23
70302;BME280;57706;56.326;43.882;2023-09-08T12:57:38;100254.50;;;36.91;16.83